Time;durP1;ratioP1;P1;durP2;ratioP2;P2;SDS_P1;SDS_P2;PMS_P1;PMS_P2;Temp;Humidity;BMP_temperature;BMP_pressure;BME280_temperature;BME280_humidity;BME280_pressure;Samples;Min_cycle;Max_cycle;Signal;HPM_P1;HPM_P2
2021/08/22 00:00:45;;;;;;;1.85;1.70;;;;;;;31.73;23.76;98504.34;5070273;28;20046;-83
2021/08/22 00:03:11;;;;;;;1.58;1.48;;;;;;;31.84;23.47;98504.63;5083736;28;20580;-83
2021/08/22 00:05:37;;;;;;;2.10;1.13;;;;;;;32.00;22.98;98506.31;5066111;28;20087;-83
2021/08/22 00:08:04;;;;;;;1.48;1.38;;;;;;;32.09;23.27;98509.16;5066016;28;20437;-84
2021/08/22 00:10:30;;;;;;;1.85;1.50;;;;;;;32.13;22.83;98504.09;5063031;28;20045;-83
2021/08/22 00:12:56;;;;;;;1.77;1.67;;;;;;;31.96;22.82;98506.50;5060577;28;20067;-83
2021/08/22 00:15:22;;;;;;;2.30;1.85;;;;;;;31.82;23.19;98495.78;5064662;28;20393;-83
2021/08/22 00:17:48;;;;;;;2.47;1.80;;;;;;;31.67;23.16;98491.25;5065249;28;20107;-83
2021/08/22 00:20:14;;;;;;;2.90;1.73;;;;;;;31.48;23.88;98487.66;5066940;28;20036;-83
2021/08/22 00:22:40;;;;;;;3.40;3.10;;;;;;;30.86;25.30;98492.78;5063040;28;20040;-83
2021/08/22 00:25:07;;;;;;;1.67;1.52;;;;;;;31.08;24.77;98495.53;5059710;28;20039;-83
2021/08/22 00:27:33;;;;;;;3.17;2.40;;;;;;;31.26;24.20;98495.53;5065160;28;20024;-83
2021/08/22 00:29:59;;;;;;;2.22;1.85;;;;;;;31.36;24.19;98497.09;5064503;28;20032;-83
2021/08/22 00:32:25;;;;;;;2.25;1.92;;;;;;;31.39;23.73;98494.09;5062176;28;20033;-83
2021/08/22 00:34:51;;;;;;;2.65;1.95;;;;;;;31.33;24.11;98489.53;5065858;28;20037;-84
2021/08/22 00:37:17;;;;;;;2.47;2.15;;;;;;;31.55;23.62;98481.66;5067574;28;20024;-83
2021/08/22 00:39:43;;;;;;;4.60;2.08;;;;;;;31.56;23.46;98488.91;5064815;28;20051;-84
2021/08/22 00:42:09;;;;;;;3.38;2.50;;;;;;;31.45;23.89;98488.59;5062338;28;20476;-83
2021/08/22 00:44:35;;;;;;;3.30;1.75;;;;;;;31.33;24.22;98486.69;5060924;28;20036;-83
2021/08/22 00:47:02;;;;;;;2.80;2.00;;;;;;;31.24;24.20;98481.81;5063768;28;20110;-84
2021/08/22 00:49:29;;;;;;;2.45;1.60;;;;;;;31.47;23.53;98480.41;5062915;28;20035;-84
2021/08/22 00:51:56;;;;;;;2.55;1.90;;;;;;;31.70;23.34;98485.41;5062429;28;20550;-83
2021/08/22 00:54:22;;;;;;;2.22;1.98;;;;;;;31.72;23.21;98488.53;5060142;28;20492;-83
2021/08/22 00:56:49;;;;;;;2.65;1.88;;;;;;;31.67;23.65;98485.56;5066953;28;20032;-83
2021/08/22 00:59:18;;;;;;;2.70;2.22;;;;;;;31.67;23.40;98485.56;5064816;28;20025;-84
2021/08/22 01:01:51;;;;;;;3.33;1.90;;;;;;;31.84;23.02;98486.78;5064334;28;20033;-83
2021/08/22 01:04:27;;;;;;;1.95;1.70;;;;;;;31.91;23.13;98484.41;5061440;28;20035;-83
2021/08/22 01:07:08;;;;;;;2.03;1.83;;;;;;;31.82;22.90;98480.78;5057906;28;20047;-83
2021/08/22 01:09:48;;;;;;;2.10;1.90;;;;;;;31.46;22.87;98483.72;5065422;28;20481;-83
2021/08/22 01:12:45;;;;;;;2.42;2.17;;;;;;;31.07;23.46;98474.88;5065262;28;20041;-83
2021/08/22 01:15:13;;;;;;;3.03;2.50;;;;;;;31.12;23.89;98476.28;5071806;28;20526;-83
2021/08/22 01:17:51;;;;;;;3.00;1.38;;;;;;;30.69;24.35;98475.28;5059384;28;20033;-83
2021/08/22 01:20:55;;;;;;;2.63;1.98;;;;;;;30.71;24.20;98469.91;5069699;28;20075;-83
2021/08/22 01:23:22;;;;;;;2.40;2.20;;;;;;;30.85;24.41;98467.75;5070186;28;20032;-83
2021/08/22 01:25:49;;;;;;;2.53;2.00;;;;;;;31.03;24.41;98468.59;5067204;28;20067;-83
2021/08/22 01:28:15;;;;;;;2.78;2.03;;;;;;;31.21;24.61;98470.63;5062659;28;20021;-83
2021/08/22 01:30:46;;;;;;;2.22;1.75;;;;;;;31.08;24.09;98470.78;5067592;28;20024;-83
2021/08/22 01:33:14;;;;;;;1.98;1.70;;;;;;;31.02;24.72;98477.53;5068513;28;20719;-83
2021/08/22 01:35:41;;;;;;;5.28;2.30;;;;;;;30.89;24.78;98472.03;5063092;28;20040;-83
2021/08/22 01:38:09;;;;;;;2.33;2.00;;;;;;;30.99;24.81;98475.66;5069743;28;20025;-83
2021/08/22 01:40:37;;;;;;;1.95;1.83;;;;;;;31.05;23.92;98465.25;5064976;28;20120;-84
2021/08/22 01:43:05;;;;;;;2.20;1.92;;;;;;;31.00;24.02;98460.22;5065987;28;20032;-83
2021/08/22 01:45:32;;;;;;;2.45;1.98;;;;;;;31.00;24.09;98465.88;5065466;28;20044;-84
2021/08/22 01:47:59;;;;;;;4.70;2.15;;;;;;;30.89;24.33;98466.38;5070849;28;20044;-83
2021/08/22 01:50:26;;;;;;;3.08;1.83;;;;;;;30.82;24.68;98472.31;5066048;28;20040;-84
2021/08/22 01:52:55;;;;;;;2.63;1.73;;;;;;;30.73;24.97;98469.47;5062760;28;20032;-83
2021/08/22 01:55:22;;;;;;;2.08;1.73;;;;;;;30.62;24.76;98474.81;5069315;28;20036;-83
2021/08/22 01:57:48;;;;;;;2.33;1.73;;;;;;;30.60;24.99;98478.09;5069601;28;20040;-84
2021/08/22 02:00:15;;;;;;;3.53;1.50;;;;;;;30.85;24.39;98464.91;5067456;28;20055;-84
2021/08/22 02:02:49;;;;;;;2.80;2.03;;;;;;;31.01;23.81;98465.44;5066137;28;20040;-84
2021/08/22 02:05:16;;;;;;;2.75;1.90;;;;;;;30.96;23.94;98468.88;5064996;28;20090;-84
2021/08/22 02:07:43;;;;;;;2.13;1.70;;;;;;;31.11;23.82;98469.06;5072870;28;20081;-83
2021/08/22 02:10:14;;;;;;;1.63;1.52;;;;;;;31.34;23.61;98466.34;5068867;28;20109;-84
2021/08/22 02:12:40;;;;;;;2.85;1.63;;;;;;;31.27;23.72;98465.91;5060017;28;20040;-83
2021/08/22 02:15:31;;;;;;;1.30;1.10;;;;;;;31.24;23.61;98461.97;5066763;28;20511;-83
2021/08/22 02:18:07;;;;;;;1.90;1.75;;;;;;;31.37;23.30;98464.59;5078867;28;20021;-83
2021/08/22 02:20:35;;;;;;;2.08;1.25;;;;;;;31.53;23.35;98472.03;5068529;28;20434;-83
2021/08/22 02:23:03;;;;;;;3.55;1.70;;;;;;;31.56;23.83;98463.34;5067472;28;20396;-83
2021/08/22 02:25:30;;;;;;;2.08;1.33;;;;;;;31.62;23.35;98467.13;5067072;28;20481;-83
2021/08/22 02:27:57;;;;;;;1.45;1.35;;;;;;;31.70;23.20;98454.16;5063146;28;20035;-83
2021/08/22 02:30:23;;;;;;;1.42;1.33;;;;;;;31.72;22.92;98465.03;5063414;28;20025;-84
2021/08/22 02:32:50;;;;;;;1.70;1.20;;;;;;;31.70;23.02;98461.88;5062745;28;20056;-83
2021/08/22 02:35:16;;;;;;;1.25;1.15;;;;;;;31.65;23.49;98466.16;5065519;28;20029;-83
2021/08/22 02:37:42;;;;;;;2.75;1.92;;;;;;;31.61;23.57;98461.91;5067062;28;20091;-83
2021/08/22 02:40:09;;;;;;;2.53;1.77;;;;;;;31.52;23.68;98459.09;5070328;28;20079;-83
2021/08/22 02:42:35;;;;;;;1.95;1.75;;;;;;;31.22;23.92;98460.84;5057363;28;20119;-84
2021/08/22 02:45:02;;;;;;;2.10;1.90;;;;;;;31.24;23.93;98459.13;5060179;28;20489;-84
2021/08/22 02:47:28;;;;;;;1.60;1.33;;;;;;;31.39;23.40;98468.53;5067547;28;20055;-83
2021/08/22 02:49:54;;;;;;;2.45;1.52;;;;;;;31.57;23.04;98458.47;5069927;28;20032;-84
2021/08/22 02:52:20;;;;;;;2.38;1.75;;;;;;;31.27;23.11;98451.72;5058818;28;20048;-84
2021/08/22 02:54:46;;;;;;;2.45;1.90;;;;;;;31.22;23.23;98455.97;5061161;28;20127;-84
2021/08/22 02:57:12;;;;;;;3.83;1.73;;;;;;;30.94;23.56;98454.41;5055135;28;20068;-84
2021/08/22 02:59:38;;;;;;;2.33;1.70;;;;;;;31.00;23.38;98451.69;5056149;28;20029;-84
2021/08/22 03:02:04;;;;;;;3.05;1.63;;;;;;;31.23;23.09;98451.06;5065681;28;20546;-83
2021/08/22 03:04:30;;;;;;;2.03;1.50;;;;;;;31.42;22.67;98449.78;5063491;28;20085;-84
2021/08/22 03:06:56;;;;;;;1.90;1.27;;;;;;;31.49;22.97;98445.84;5066910;28;20039;-84
2021/08/22 03:09:22;;;;;;;1.58;1.30;;;;;;;31.41;22.93;98443.31;5062639;28;20051;-83
2021/08/22 03:11:48;;;;;;;1.67;1.50;;;;;;;31.21;23.46;98439.41;5064117;28;20112;-83
2021/08/22 03:14:14;;;;;;;1.70;1.55;;;;;;;31.10;23.49;98445.56;5061199;28;20052;-83
2021/08/22 03:16:40;;;;;;;2.50;1.60;;;;;;;31.17;23.39;98442.41;5068269;28;20082;-83
2021/08/22 03:19:07;;;;;;;2.13;1.35;;;;;;;31.28;23.01;98444.75;5065738;28;20108;-83
2021/08/22 03:21:33;;;;;;;2.55;1.90;;;;;;;31.38;22.94;98444.28;5062285;28;20518;-84
2021/08/22 03:23:59;;;;;;;1.50;1.33;;;;;;;31.39;23.25;98442.25;5064651;28;20029;-83
2021/08/22 03:26:26;;;;;;;2.00;1.40;;;;;;;31.23;23.78;98436.88;5069523;28;20041;-84
2021/08/22 03:28:52;;;;;;;1.67;1.52;;;;;;;31.07;24.11;98435.16;5067094;28;20028;-84
2021/08/22 03:31:18;;;;;;;1.40;1.30;;;;;;;31.04;24.00;98443.84;5064486;28;20107;-83
2021/08/22 03:33:44;;;;;;;2.22;1.38;;;;;;;30.99;23.95;98433.91;5064773;28;20024;-83
2021/08/22 03:36:10;;;;;;;3.03;1.77;;;;;;;30.77;24.73;98436.06;5061288;28;20492;-84
2021/08/22 03:38:36;;;;;;;1.50;1.40;;;;;;;30.56;25.02;98437.78;5060213;28;20033;-84
2021/08/22 03:41:02;;;;;;;2.05;1.48;;;;;;;30.56;25.33;98437.78;5060197;28;20481;-83
2021/08/22 03:43:29;;;;;;;8.77;1.55;;;;;;;30.74;25.02;98434.19;5056439;28;20039;-83
2021/08/22 03:45:55;;;;;;;2.38;1.60;;;;;;;30.94;24.88;98430.91;5059738;28;20043;-83
2021/08/22 03:48:21;;;;;;;2.25;1.80;;;;;;;30.94;24.72;98428.88;5060327;28;20071;-83
2021/08/22 03:50:47;;;;;;;1.92;1.58;;;;;;;31.12;24.41;98433.75;5070536;28;20032;-84
2021/08/22 03:53:13;;;;;;;2.42;1.80;;;;;;;31.25;24.24;98440.06;5068965;28;20059;-83
2021/08/22 03:55:39;;;;;;;3.60;2.35;;;;;;;31.46;24.32;98435.47;5058492;28;20485;-83
2021/08/22 03:58:05;;;;;;;2.40;1.67;;;;;;;31.64;23.78;98441.09;5058843;28;20033;-83
2021/08/22 04:00:31;;;;;;;2.05;1.85;;;;;;;31.70;24.04;98433.50;5060892;28;20512;-84
2021/08/22 04:02:57;;;;;;;2.63;1.92;;;;;;;31.71;24.30;98429.41;5062344;28;20035;-84
2021/08/22 04:05:23;;;;;;;2.08;1.85;;;;;;;31.95;23.80;98435.94;5064154;28;20116;-83
2021/08/22 04:07:51;;;;;;;2.42;1.58;;;;;;;32.27;23.28;98431.56;5064314;28;20127;-83
2021/08/22 04:10:17;;;;;;;1.73;1.50;;;;;;;32.24;23.28;98429.66;5062412;28;20044;-83
2021/08/22 04:12:44;;;;;;;1.30;1.20;;;;;;;32.35;22.74;98436.38;5065840;28;20051;-83
2021/08/22 04:15:10;;;;;;;1.98;1.77;;;;;;;32.27;22.53;98437.25;5066894;28;20029;-83
2021/08/22 04:17:36;;;;;;;1.30;1.20;;;;;;;32.35;22.13;98436.38;5061220;28;20033;-83
2021/08/22 04:20:03;;;;;;;2.05;1.27;;;;;;;32.00;22.37;98438.94;5064709;28;20025;-83
2021/08/22 04:22:29;;;;;;;1.65;1.33;;;;;;;31.84;22.87;98432.81;5068030;28;20072;-83
2021/08/22 04:24:55;;;;;;;1.65;1.20;;;;;;;31.90;22.86;98437.38;5062920;28;20078;-83
2021/08/22 04:27:21;;;;;;;1.65;1.38;;;;;;;31.93;22.85;98436.41;5063502;28;20033;-83
2021/08/22 04:29:47;;;;;;;2.30;1.40;;;;;;;31.85;22.75;98431.56;5063799;28;20040;-83
2021/08/22 04:32:13;;;;;;;2.17;1.40;;;;;;;31.66;23.41;98435.72;5061586;28;20078;-83
2021/08/22 04:34:39;;;;;;;2.63;2.35;;;;;;;31.56;24.19;98439.84;5062133;28;20036;-83
2021/08/22 04:37:05;;;;;;;1.75;1.58;;;;;;;31.46;24.32;98436.22;5069361;28;20677;-83
2021/08/22 04:39:31;;;;;;;2.40;1.60;;;;;;;32.01;24.23;98436.88;5065496;28;20060;-83
2021/08/22 04:41:57;;;;;;;1.83;1.70;;;;;;;32.44;23.62;98435.56;5061653;28;20037;-84
2021/08/22 04:47:08;;;;;;;2.75;2.00;;;;;;;33.23;23.29;98433.91;5059012;28;20139;-83
2021/08/22 04:49:34;;;;;;;1.98;1.80;;;;;;;33.34;23.79;98432.06;5063856;28;20024;-83
2021/08/22 04:52:00;;;;;;;2.88;1.98;;;;;;;33.30;23.59;98434.28;5057600;28;20467;-84
2021/08/22 04:54:26;;;;;;;1.77;1.60;;;;;;;33.41;23.30;98434.53;5065224;28;20082;-84
2021/08/22 04:56:53;;;;;;;1.88;1.77;;;;;;;33.51;24.08;98437.25;5066288;28;20047;-84
2021/08/22 04:59:19;;;;;;;2.38;2.17;;;;;;;33.35;24.25;98430.75;5069863;28;20047;-84
2021/08/22 05:01:45;;;;;;;1.95;1.67;;;;;;;33.14;24.28;98434.00;5059303;28;20103;-84
2021/08/22 05:04:11;;;;;;;1.65;1.52;;;;;;;33.25;24.13;98429.31;5067184;28;20454;-84
2021/08/22 05:06:37;;;;;;;1.88;1.77;;;;;;;33.46;24.59;98426.56;5065664;28;20465;-84
2021/08/22 05:09:03;;;;;;;3.08;1.77;;;;;;;33.46;24.38;98433.03;5062829;28;20548;-84
2021/08/22 05:11:29;;;;;;;1.77;1.45;;;;;;;33.27;23.87;98434.50;5063038;28;20048;-84
2021/08/22 05:13:55;;;;;;;1.90;1.70;;;;;;;33.30;24.51;98430.69;5060799;28;20546;-84
2021/08/22 05:16:21;;;;;;;1.95;1.70;;;;;;;33.44;24.47;98424.97;5065661;28;20036;-84
2021/08/22 05:18:47;;;;;;;2.28;1.60;;;;;;;33.44;24.38;98422.13;5068344;28;20392;-84
2021/08/22 05:21:13;;;;;;;1.30;1.20;;;;;;;33.52;24.24;98421.75;5059219;28;20047;-84
2021/08/22 05:23:39;;;;;;;2.03;1.73;;;;;;;33.52;24.53;98433.13;5063455;28;20029;-84
2021/08/22 05:26:05;;;;;;;1.88;1.17;;;;;;;33.48;24.20;98429.69;5068411;28;20481;-84
2021/08/22 05:28:31;;;;;;;2.35;1.38;;;;;;;33.75;24.07;98430.22;5067841;28;20491;-84
2021/08/22 05:30:57;;;;;;;1.38;1.25;;;;;;;33.95;23.86;98436.00;5060808;28;20369;-84
2021/08/22 05:33:23;;;;;;;3.08;1.65;;;;;;;34.05;24.33;98431.78;5068724;28;20450;-84
2021/08/22 05:35:49;;;;;;;2.55;2.15;;;;;;;33.86;24.42;98435.31;5061141;28;20055;-83
2021/08/22 05:38:15;;;;;;;2.60;2.13;;;;;;;33.49;25.40;98437.78;5059479;28;20109;-84
2021/08/22 05:40:41;;;;;;;2.47;2.15;;;;;;;33.39;25.38;98433.44;5065570;28;20481;-84
2021/08/22 05:43:07;;;;;;;2.58;2.22;;;;;;;33.22;26.04;98438.00;5067202;28;20032;-83
2021/08/22 05:45:33;;;;;;;3.20;2.15;;;;;;;33.34;25.55;98431.25;5061277;28;20112;-84
2021/08/22 05:48:00;;;;;;;2.80;2.40;;;;;;;33.09;26.05;98429.78;5055096;28;20072;-84
2021/08/22 05:50:26;;;;;;;2.63;2.42;;;;;;;32.77;26.92;98432.69;5062651;28;20047;-83
2021/08/22 05:52:53;;;;;;;3.08;2.78;;;;;;;32.21;27.63;98425.72;5064939;28;20496;-84
2021/08/22 05:55:20;;;;;;;4.57;2.20;;;;;;;32.40;27.93;98426.41;5063376;28;20033;-84
2021/08/22 05:57:46;;;;;;;2.63;2.42;;;;;;;32.34;27.75;98426.31;5068568;28;20024;-84
2021/08/22 06:00:12;;;;;;;3.70;2.20;;;;;;;31.67;28.48;98426.72;5069767;28;20048;-84
2021/08/22 06:02:38;;;;;;;2.53;2.20;;;;;;;32.31;28.73;98429.31;5068629;28;20029;-84
2021/08/22 06:05:06;;;;;;;2.85;2.60;;;;;;;32.19;28.11;98433.16;5059888;28;20451;-83
2021/08/22 06:07:32;;;;;;;3.03;2.38;;;;;;;32.54;28.32;98437.09;5063517;28;20031;-83
2021/08/22 06:09:58;;;;;;;3.17;2.88;;;;;;;32.48;28.18;98430.47;5063817;28;20041;-84
2021/08/22 06:12:24;;;;;;;2.75;2.55;;;;;;;32.72;27.96;98423.53;5066988;28;20045;-84
2021/08/22 06:14:51;;;;;;;2.45;2.25;;;;;;;32.22;27.72;98429.38;5067066;28;20037;-84
2021/08/22 06:17:17;;;;;;;2.58;2.38;;;;;;;32.03;28.56;98425.84;5073877;28;20032;-84
2021/08/22 06:19:43;;;;;;;2.63;2.42;;;;;;;31.77;29.07;98427.47;5080692;28;20031;-84
2021/08/22 06:22:09;;;;;;;3.47;2.25;;;;;;;32.86;28.73;98407.78;5089820;28;20025;-84
2021/08/22 06:24:35;;;;;;;2.63;2.22;;;;;;;32.88;28.66;98410.16;5066054;28;20059;-84
2021/08/22 06:27:02;;;;;;;2.38;2.17;;;;;;;33.31;29.18;98410.25;5070521;28;20074;-87
2021/08/22 06:29:28;;;;;;;2.60;2.40;;;;;;;33.02;27.37;98407.38;5065599;28;20060;-85
2021/08/22 06:31:54;;;;;;;2.55;2.35;;;;;;;33.59;28.09;98416.47;5073661;28;20120;-87
2021/08/22 06:34:20;;;;;;;2.35;2.15;;;;;;;32.82;27.98;98410.03;5062865;28;20461;-86
2021/08/22 06:36:48;;;;;;;2.92;2.42;;;;;;;32.29;29.48;98411.97;5059769;28;20052;-84
2021/08/22 06:39:14;;;;;;;2.92;2.70;;;;;;;31.64;30.68;98407.81;5067778;28;20037;-84
2021/08/22 06:41:40;;;;;;;3.60;2.85;;;;;;;32.03;30.41;98406.75;5067625;28;20480;-84
2021/08/22 06:44:06;;;;;;;2.88;2.10;;;;;;;32.84;29.00;98404.66;5064581;28;20385;-84
2021/08/22 06:46:32;;;;;;;3.80;2.70;;;;;;;32.83;28.60;98402.28;5067501;28;20124;-86
2021/08/22 06:48:59;;;;;;;5.80;3.03;;;;;;;32.14;29.62;98408.28;5064779;28;20044;-87
2021/08/22 06:51:25;;;;;;;3.00;2.70;;;;;;;33.15;29.57;98399.34;5070416;28;20493;-85
2021/08/22 06:53:51;;;;;;;2.35;2.15;;;;;;;33.94;28.67;98405.13;5064611;28;20036;-85
2021/08/22 06:56:17;;;;;;;3.53;2.42;;;;;;;34.19;27.55;98404.53;5064095;28;20036;-85
2021/08/22 06:58:43;;;;;;;2.33;2.13;;;;;;;34.47;26.85;98399.97;5057032;28;20032;-85
2021/08/22 07:01:09;;;;;;;6.82;2.40;;;;;;;33.92;28.24;98399.94;5062877;28;20069;-87
2021/08/22 07:03:35;;;;;;;2.38;2.17;;;;;;;35.10;26.83;98394.59;5062954;28;20029;-86
2021/08/22 07:06:01;;;;;;;3.55;2.90;;;;;;;34.45;27.40;98396.09;5060889;28;20036;-85
2021/08/22 07:08:27;;;;;;;2.42;2.22;;;;;;;34.73;26.72;98402.94;5069062;28;20036;-86
2021/08/22 07:10:56;;;;;;;2.15;1.98;;;;;;;35.01;26.69;98397.59;5068181;28;20056;-85
2021/08/22 07:13:22;;;;;;;1.75;1.65;;;;;;;34.70;27.25;98398.25;5066434;28;20063;-85
2021/08/22 07:15:48;;;;;;;2.70;2.50;;;;;;;34.33;26.83;98397.97;5062838;28;20044;-85
2021/08/22 07:18:17;;;;;;;2.40;2.17;;;;;;;34.82;26.78;98407.72;5063562;28;20037;-84
2021/08/22 07:20:43;;;;;;;2.30;1.85;;;;;;;35.12;27.09;98406.28;5061730;28;20029;-84
2021/08/22 07:23:09;;;;;;;2.17;1.85;;;;;;;35.50;27.08;98408.78;5068885;28;20054;-85
2021/08/22 07:25:35;;;;;;;2.45;1.90;;;;;;;35.76;25.94;98414.47;5063773;28;20024;-87
2021/08/22 07:28:02;;;;;;;2.55;1.88;;;;;;;36.03;25.85;98417.59;5057793;28;20028;-84
2021/08/22 07:30:28;;;;;;;1.90;1.77;;;;;;;36.54;24.71;98408.06;5057693;28;20099;-85
2021/08/22 07:32:55;;;;;;;4.63;1.63;;;;;;;36.67;24.85;98411.22;5058967;28;20056;-85
2021/08/22 07:35:22;;;;;;;3.05;1.70;;;;;;;36.19;25.08;98415.34;5061316;28;20028;-85
2021/08/22 07:37:48;;;;;;;1.30;1.20;;;;;;;35.96;25.66;98423.75;5063940;28;20064;-84
2021/08/22 07:40:14;;;;;;;1.83;1.45;;;;;;;36.49;25.14;98423.09;5062777;28;20032;-84
2021/08/22 07:42:40;;;;;;;1.70;1.60;;;;;;;36.76;25.19;98418.81;5063834;28;20051;-84
2021/08/22 07:45:06;;;;;;;2.00;1.80;;;;;;;35.59;25.66;98414.34;5063544;28;20100;-84
2021/08/22 07:47:32;;;;;;;1.63;1.45;;;;;;;35.86;26.21;98413.78;5062712;28;20048;-85
2021/08/22 07:49:58;;;;;;;2.00;1.85;;;;;;;35.88;24.60;98413.25;5060599;28;20029;-85
2021/08/22 07:52:25;;;;;;;1.95;1.85;;;;;;;35.42;25.83;98410.50;5062403;28;20102;-84
2021/08/22 07:54:51;;;;;;;1.98;1.85;;;;;;;36.43;25.12;98412.91;5061514;28;20378;-84
2021/08/22 07:57:17;;;;;;;1.73;1.45;;;;;;;37.07;23.73;98421.56;5065110;28;20028;-84
2021/08/22 07:59:44;;;;;;;2.13;1.42;;;;;;;37.17;23.83;98424.97;5064780;28;20037;-84
2021/08/22 08:02:10;;;;;;;1.73;1.40;;;;;;;37.34;23.22;98429.44;5062602;28;20041;-84
2021/08/22 08:04:36;;;;;;;2.40;1.95;;;;;;;37.27;23.15;98429.19;5059367;28;20025;-84
2021/08/22 08:07:02;;;;;;;1.50;1.40;;;;;;;36.77;23.03;98425.31;5063036;28;20085;-84
2021/08/22 08:09:28;;;;;;;1.92;1.83;;;;;;;36.47;24.87;98425.69;5063518;28;20480;-85
2021/08/22 08:11:57;;;;;;;1.63;1.45;;;;;;;37.01;23.66;98422.84;5063108;28;20108;-83
2021/08/22 08:14:24;;;;;;;1.70;1.35;;;;;;;36.59;23.96;98421.63;5057495;28;20029;-86
2021/08/22 08:16:50;;;;;;;1.52;1.42;;;;;;;36.39;24.40;98423.78;5064740;28;20016;-84
2021/08/22 08:19:16;;;;;;;1.75;1.30;;;;;;;36.99;23.70;98423.38;5069277;28;20029;-84
2021/08/22 08:21:42;;;;;;;1.23;1.13;;;;;;;36.97;23.50;98408.78;5067398;28;20029;-86
2021/08/22 08:24:09;;;;;;;1.75;1.65;;;;;;;37.03;23.18;98415.31;5060249;28;20028;-84
2021/08/22 08:26:36;;;;;;;1.30;1.20;;;;;;;37.79;23.23;98407.38;5067803;28;20500;-85
2021/08/22 08:29:02;;;;;;;1.85;1.30;;;;;;;38.27;22.98;98407.16;5059578;28;20039;-83
2021/08/22 08:31:28;;;;;;;1.05;1.02;;;;;;;38.62;22.50;98404.44;5063528;28;20059;-83
2021/08/22 08:33:54;;;;;;;1.80;1.60;;;;;;;37.10;24.20;98409.09;5064909;28;20047;-84
2021/08/22 08:36:21;;;;;;;3.38;1.80;;;;;;;35.83;24.97;98408.28;5058526;28;20044;-86
2021/08/22 08:38:47;;;;;;;1.77;1.67;;;;;;;36.12;25.51;98407.22;5057997;28;20037;-84
2021/08/22 08:41:13;;;;;;;1.50;1.40;;;;;;;36.61;25.36;98410.44;5061876;28;20119;-86
2021/08/22 08:43:39;;;;;;;1.92;1.58;;;;;;;37.55;23.35;98409.19;5058898;28;20032;-85
2021/08/22 08:46:23;;;;;;;1.50;1.40;;;;;;;36.76;24.67;98412.31;5061259;28;20143;-86
2021/08/22 08:49:09;;;;;;;1.90;1.30;;;;;;;36.44;23.85;98408.72;5060066;28;20142;-86
2021/08/22 08:51:37;;;;;;;1.63;1.52;;;;;;;35.93;26.19;98412.53;5061602;28;20064;-85
2021/08/22 08:54:15;;;;;;;2.17;1.98;;;;;;;35.73;26.11;98410.53;5061126;28;20112;-89
2021/08/22 08:56:42;;;;;;;2.88;1.50;;;;;;;36.05;26.46;98412.16;5060620;28;20056;-88
2021/08/22 08:59:10;;;;;;;2.00;1.90;;;;;;;35.54;25.71;98409.34;5061974;28;20429;-89
2021/08/22 09:01:37;;;;;;;2.05;1.70;;;;;;;35.29;25.47;98401.53;5071853;28;20480;-88
2021/08/22 09:04:29;;;;;;;2.78;1.50;;;;;;;35.88;26.08;98405.47;5064021;28;20083;-86
2021/08/22 09:07:33;;;;;;;1.60;1.50;;;;;;;36.44;24.36;98403.00;5063769;28;20045;-86
2021/08/22 09:10:33;;;;;;;1.70;1.60;;;;;;;35.54;25.46;98397.94;5067662;28;20029;-86
2021/08/22 09:13:36;;;;;;;1.60;1.50;;;;;;;36.67;25.40;98399.00;5072872;28;20602;-86
2021/08/22 09:16:39;;;;;;;1.52;1.33;;;;;;;37.58;24.39;98394.59;5064026;28;20043;-86
2021/08/22 09:19:43;;;;;;;3.42;1.88;;;;;;;36.04;24.09;98399.13;5067129;28;20039;-87
2021/08/22 09:22:46;;;;;;;1.60;1.50;;;;;;;34.73;26.32;98398.03;5053011;28;20040;-86
2021/08/22 09:25:37;;;;;;;1.38;1.27;;;;;;;36.57;24.88;98389.84;5052776;28;20036;-88
2021/08/22 09:28:22;;;;;;;;;;;;;;;37.67;23.17;98388.59;5063513;28;20450;-87
2021/08/22 09:31:10;;;;;;;1.45;1.35;;;;;;;38.80;22.04;98390.81;5056618;28;19920;-85
2021/08/22 09:34:13;;;;;;;0.80;0.80;;;;;;;39.08;20.25;98394.31;5074799;28;20044;-86
2021/08/22 09:37:07;;;;;;;1.17;1.08;;;;;;;39.59;20.99;98396.41;5074705;28;20079;-86
2021/08/22 09:40:11;;;;;;;1.02;0.90;;;;;;;40.01;20.00;98397.91;5056564;28;20033;-86
2021/08/22 09:42:57;;;;;;;0.82;0.80;;;;;;;39.00;20.27;98396.97;5065464;28;20047;-86
2021/08/22 09:46:01;;;;;;;1.45;1.10;;;;;;;38.36;21.04;98400.31;5069601;28;20045;-86
2021/08/22 09:49:08;;;;;;;1.00;1.00;;;;;;;36.94;23.74;98409.03;5070483;28;20052;-87
2021/08/22 09:52:14;;;;;;;1.63;1.52;;;;;;;34.99;23.38;98400.91;5066848;28;20060;-87
2021/08/22 09:55:09;;;;;;;1.10;1.00;;;;;;;35.61;23.04;98394.63;5073839;28;20032;-87
2021/08/22 09:58:02;;;;;;;1.95;1.40;;;;;;;36.06;22.67;98395.75;5069088;28;20063;-87
2021/08/22 10:00:57;;;;;;;1.85;1.50;;;;;;;36.12;22.92;98390.88;5065068;28;20043;-87
2021/08/22 10:03:54;;;;;;;0.98;0.98;;;;;;;37.39;21.51;98397.19;5075958;28;20484;-87
2021/08/22 10:06:44;;;;;;;1.20;1.10;;;;;;;37.59;20.71;98386.78;5086164;28;20048;-87
2021/08/22 10:09:18;;;;;;;;;;;;;;;38.61;20.37;98373.38;5075998;28;20035;-87
2021/08/22 10:11:51;;;;;;;0.80;0.80;;;;;;;39.62;19.37;98374.44;5064909;28;19917;-86
2021/08/22 10:14:18;;;;;;;0.70;0.70;;;;;;;39.54;20.25;98379.19;5055981;28;20032;-87
2021/08/22 10:16:51;;;;;;;0.93;0.93;;;;;;;39.91;20.23;98373.66;5060100;28;20024;-87
2021/08/22 10:19:26;;;;;;;0.80;0.70;;;;;;;40.20;19.27;98378.63;5055919;28;20037;-87
2021/08/22 10:22:18;;;;;;;0.70;0.70;;;;;;;39.46;18.35;98370.34;5055931;28;20021;-88
2021/08/22 10:24:48;;;;;;;1.70;0.73;;;;;;;39.92;18.85;98369.44;5064949;28;20024;-87
2021/08/22 10:27:40;;;;;;;0.80;0.70;;;;;;;40.01;19.91;98367.03;5075015;28;20028;-85
2021/08/22 10:30:13;;;;;;;0.68;0.68;;;;;;;40.28;18.73;98376.72;5054379;28;20504;-85
2021/08/22 10:33:00;;;;;;;0.73;0.73;;;;;;;39.16;17.79;98369.50;5057360;28;20036;-83
2021/08/22 10:35:30;;;;;;;0.73;0.73;;;;;;;38.03;20.95;98366.72;5073530;28;20067;-83
2021/08/22 10:38:16;;;;;;;0.77;0.75;;;;;;;38.88;20.13;98366.78;5070673;28;20047;-83
2021/08/22 10:40:42;;;;;;;0.60;0.60;;;;;;;39.49;19.79;98368.50;5072264;28;20111;-82
2021/08/22 10:43:09;;;;;;;0.70;0.70;;;;;;;39.36;18.96;98364.13;5075092;28;20552;-83
2021/08/22 10:45:41;;;;;;;0.70;0.70;;;;;;;39.44;18.13;98367.22;5075078;28;20081;-82
2021/08/22 10:48:08;;;;;;;0.63;0.63;;;;;;;39.56;18.61;98365.03;5071342;28;20105;-84
2021/08/22 10:51:04;;;;;;;0.95;0.88;;;;;;;38.68;18.30;98367.06;5068056;28;20083;-84
2021/08/22 10:53:38;;;;;;;0.77;0.70;;;;;;;38.16;19.47;98366.94;5073313;28;20496;-85
2021/08/22 10:56:23;;;;;;;0.63;0.63;;;;;;;37.54;19.65;98356.84;5067256;28;20025;-84
2021/08/22 10:58:59;;;;;;;2.10;0.77;;;;;;;37.02;18.82;98379.38;5072021;28;20035;-84
2021/08/22 11:01:26;;;;;;;0.80;0.80;;;;;;;37.64;20.41;98366.75;5070167;28;20043;-81
2021/08/22 11:04:07;;;;;;;0.70;0.70;;;;;;;37.64;20.97;98363.09;5064146;28;20037;-81
2021/08/22 11:06:35;;;;;;;0.80;0.80;;;;;;;38.46;20.52;98367.19;5077544;28;20056;-80
2021/08/22 11:09:02;;;;;;;0.63;0.63;;;;;;;39.30;18.40;98363.38;5063312;28;20052;-81
2021/08/22 11:11:29;;;;;;;0.70;0.70;;;;;;;38.92;20.16;98361.53;5054968;28;20100;-81
2021/08/22 11:13:57;;;;;;;1.85;0.75;;;;;;;39.56;19.63;98365.81;5066901;28;20032;-80
2021/08/22 11:16:46;;;;;;;0.95;0.73;;;;;;;40.10;18.94;98363.00;5062745;28;20043;-81
2021/08/22 11:19:13;;;;;;;0.50;0.50;;;;;;;40.73;17.30;98365.47;5066769;28;20449;-80
2021/08/22 11:21:39;;;;;;;0.82;0.60;;;;;;;40.14;17.30;98362.72;5074462;28;20032;-81
2021/08/22 11:24:06;;;;;;;1.30;0.80;;;;;;;38.81;19.27;98360.81;5074039;28;20057;-81
2021/08/22 11:26:33;;;;;;;0.60;0.60;;;;;;;39.00;19.04;98368.25;5068434;28;20503;-81
2021/08/22 11:29:00;;;;;;;0.57;0.57;;;;;;;38.83;19.22;98356.09;5070434;28;20071;-81
2021/08/22 11:31:34;;;;;;;0.60;0.60;;;;;;;38.18;19.45;98363.56;5073661;28;20112;-81
2021/08/22 11:34:14;;;;;;;0.70;0.57;;;;;;;38.12;17.42;98363.56;5072739;28;20075;-81
2021/08/22 11:36:41;;;;;;;0.75;0.75;;;;;;;39.25;17.04;98354.81;5068749;28;20050;-81
2021/08/22 11:39:16;;;;;;;0.50;0.50;;;;;;;39.64;17.52;98357.41;5072615;28;20515;-82
2021/08/22 11:41:50;;;;;;;0.52;0.52;;;;;;;39.86;18.19;98352.25;5074067;28;20035;-81
2021/08/22 11:44:23;;;;;;;0.47;0.47;;;;;;;39.65;17.46;98356.91;5073585;28;20431;-81
2021/08/22 11:46:51;;;;;;;0.68;0.68;;;;;;;38.80;17.73;98362.88;5071353;28;20047;-82
2021/08/22 11:49:19;;;;;;;0.70;0.70;;;;;;;39.65;17.18;98356.13;5073777;28;20025;-81
2021/08/22 11:51:51;;;;;;;0.50;0.50;;;;;;;40.33;18.03;98363.59;5071970;28;20033;-82